sensor_id;sensor_type;location;lat;lon;timestamp;P1;durP1;ratioP1;P2;durP2;ratioP2
5977;SDS011;3015;51.390;12.256;2022-08-03T00:01:34;6.60;;;6.20;;
5977;SDS011;3015;51.390;12.256;2022-08-03T00:04:00;6.07;;;5.60;;
5977;SDS011;3015;51.390;12.256;2022-08-03T00:06:26;6.80;;;6.30;;
5977;SDS011;3015;51.390;12.256;2022-08-03T00:08:52;6.57;;;6.00;;
5977;SDS011;3015;51.390;12.256;2022-08-03T00:11:17;6.30;;;5.77;;
5977;SDS011;3015;51.390;12.256;2022-08-03T00:13:43;7.20;;;6.60;;
5977;SDS011;3015;51.390;12.256;2022-08-03T00:16:09;6.40;;;6.00;;
5977;SDS011;3015;51.390;12.256;2022-08-03T00:18:35;6.40;;;6.00;;
5977;SDS011;3015;51.390;12.256;2022-08-03T00:21:02;6.03;;;5.23;;
5977;SDS011;3015;51.390;12.256;2022-08-03T00:23:28;5.83;;;5.40;;
5977;SDS011;3015;51.390;12.256;2022-08-03T00:25:53;6.40;;;5.90;;
5977;SDS011;3015;51.390;12.256;2022-08-03T00:28:19;7.00;;;6.50;;
5977;SDS011;3015;51.390;12.256;2022-08-03T00:30:45;6.60;;;6.03;;
5977;SDS011;3015;51.390;12.256;2022-08-03T00:33:11;5.80;;;5.50;;
5977;SDS011;3015;51.390;12.256;2022-08-03T00:35:36;7.43;;;6.83;;
5977;SDS011;3015;51.390;12.256;2022-08-03T00:38:02;6.73;;;6.17;;
5977;SDS011;3015;51.390;12.256;2022-08-03T00:40:28;6.57;;;5.90;;
5977;SDS011;3015;51.390;12.256;2022-08-03T00:42:58;6.23;;;5.87;;
5977;SDS011;3015;51.390;12.256;2022-08-03T00:45:29;6.53;;;6.10;;
5977;SDS011;3015;51.390;12.256;2022-08-03T00:47:56;6.73;;;6.13;;
5977;SDS011;3015;51.390;12.256;2022-08-03T00:50:23;5.20;;;4.90;;
5977;SDS011;3015;51.390;12.256;2022-08-03T00:52:51;7.13;;;6.43;;
5977;SDS011;3015;51.390;12.256;2022-08-03T00:55:18;6.87;;;5.70;;
5977;SDS011;3015;51.390;12.256;2022-08-03T00:57:45;7.63;;;6.93;;
5977;SDS011;3015;51.390;12.256;2022-08-03T01:00:11;6.53;;;6.13;;
5977;SDS011;3015;51.390;12.256;2022-08-03T01:02:39;6.30;;;5.73;;
5977;SDS011;3015;51.390;12.256;2022-08-03T01:05:05;6.90;;;6.40;;
5977;SDS011;3015;51.390;12.256;2022-08-03T01:13:10;6.40;;;5.93;;
5977;SDS011;3015;51.390;12.256;2022-08-03T01:18:36;6.90;;;6.40;;
5977;SDS011;3015;51.390;12.256;2022-08-03T01:21:09;6.13;;;5.73;;
5977;SDS011;3015;51.390;12.256;2022-08-03T01:31:56;7.83;;;7.23;;
5977;SDS011;3015;51.390;12.256;2022-08-03T01:34:27;6.80;;;6.30;;
5977;SDS011;3015;51.390;12.256;2022-08-03T01:36:56;7.23;;;6.60;;
5977;SDS011;3015;51.390;12.256;2022-08-03T01:39:25;6.27;;;5.87;;
5977;SDS011;3015;51.390;12.256;2022-08-03T01:41:56;6.83;;;6.10;;
5977;SDS011;3015;51.390;12.256;2022-08-03T01:44:25;7.20;;;6.57;;
5977;SDS011;3015;51.390;12.256;2022-08-03T01:46:55;6.97;;;6.57;;
5977;SDS011;3015;51.390;12.256;2022-08-03T01:49:23;7.00;;;6.50;;
5977;SDS011;3015;51.390;12.256;2022-08-03T01:51:50;7.20;;;6.70;;
5977;SDS011;3015;51.390;12.256;2022-08-03T01:54:18;6.90;;;6.30;;
5977;SDS011;3015;51.390;12.256;2022-08-03T01:56:44;6.40;;;6.00;;
5977;SDS011;3015;51.390;12.256;2022-08-03T01:59:13;6.77;;;6.30;;
5977;SDS011;3015;51.390;12.256;2022-08-03T02:01:41;6.57;;;6.10;;
5977;SDS011;3015;51.390;12.256;2022-08-03T02:04:08;7.20;;;6.80;;
5977;SDS011;3015;51.390;12.256;2022-08-03T02:06:36;7.47;;;6.83;;
5977;SDS011;3015;51.390;12.256;2022-08-03T02:09:04;6.87;;;6.27;;
5977;SDS011;3015;51.390;12.256;2022-08-03T02:11:31;6.87;;;6.37;;
5977;SDS011;3015;51.390;12.256;2022-08-03T02:14:00;6.60;;;6.10;;
5977;SDS011;3015;51.390;12.256;2022-08-03T02:16:27;7.30;;;6.70;;
5977;SDS011;3015;51.390;12.256;2022-08-03T02:18:56;7.60;;;7.03;;
5977;SDS011;3015;51.390;12.256;2022-08-03T02:21:24;7.10;;;6.60;;
5977;SDS011;3015;51.390;12.256;2022-08-03T02:23:52;6.73;;;6.33;;
5977;SDS011;3015;51.390;12.256;2022-08-03T02:26:18;7.07;;;6.57;;
5977;SDS011;3015;51.390;12.256;2022-08-03T02:28:46;7.50;;;7.00;;
5977;SDS011;3015;51.390;12.256;2022-08-03T02:31:15;7.13;;;6.63;;
5977;SDS011;3015;51.390;12.256;2022-08-03T02:33:52;7.67;;;7.07;;
5977;SDS011;3015;51.390;12.256;2022-08-03T02:36:22;7.17;;;6.67;;
5977;SDS011;3015;51.390;12.256;2022-08-03T02:38:55;7.40;;;6.70;;
5977;SDS011;3015;51.390;12.256;2022-08-03T02:41:36;7.27;;;6.57;;
5977;SDS011;3015;51.390;12.256;2022-08-03T02:44:07;7.20;;;6.70;;
5977;SDS011;3015;51.390;12.256;2022-08-03T02:46:35;7.23;;;6.70;;
5977;SDS011;3015;51.390;12.256;2022-08-03T02:49:02;7.97;;;7.17;;
5977;SDS011;3015;51.390;12.256;2022-08-03T02:51:31;7.03;;;6.63;;
5977;SDS011;3015;51.390;12.256;2022-08-03T02:53:59;7.73;;;7.00;;
5977;SDS011;3015;51.390;12.256;2022-08-03T02:56:27;7.63;;;7.00;;
5977;SDS011;3015;51.390;12.256;2022-08-03T02:58:53;7.90;;;7.40;;
5977;SDS011;3015;51.390;12.256;2022-08-03T03:01:22;7.97;;;7.27;;
5977;SDS011;3015;51.390;12.256;2022-08-03T03:03:49;7.93;;;7.33;;
5977;SDS011;3015;51.390;12.256;2022-08-03T03:06:17;8.40;;;7.60;;
5977;SDS011;3015;51.390;12.256;2022-08-03T03:08:44;7.70;;;7.10;;
5977;SDS011;3015;51.390;12.256;2022-08-03T03:11:11;8.07;;;7.57;;
5977;SDS011;3015;51.390;12.256;2022-08-03T03:13:38;9.07;;;8.00;;
5977;SDS011;3015;51.390;12.256;2022-08-03T03:16:08;8.30;;;7.50;;
5977;SDS011;3015;51.390;12.256;2022-08-03T03:18:35;9.03;;;8.33;;
5977;SDS011;3015;51.390;12.256;2022-08-03T03:21:02;8.77;;;8.07;;
5977;SDS011;3015;51.390;12.256;2022-08-03T03:23:28;8.53;;;7.93;;
5977;SDS011;3015;51.390;12.256;2022-08-03T03:25:55;8.40;;;7.60;;
5977;SDS011;3015;51.390;12.256;2022-08-03T03:28:23;7.40;;;6.90;;
5977;SDS011;3015;51.390;12.256;2022-08-03T03:30:49;8.90;;;8.17;;
5977;SDS011;3015;51.390;12.256;2022-08-03T03:33:15;9.10;;;8.30;;
5977;SDS011;3015;51.390;12.256;2022-08-03T03:35:41;10.17;;;7.70;;
5977;SDS011;3015;51.390;12.256;2022-08-03T03:38:09;8.40;;;7.80;;
5977;SDS011;3015;51.390;12.256;2022-08-03T03:40:35;8.57;;;7.87;;
5977;SDS011;3015;51.390;12.256;2022-08-03T03:43:02;8.63;;;7.90;;
5977;SDS011;3015;51.390;12.256;2022-08-03T03:45:32;8.63;;;7.87;;
5977;SDS011;3015;51.390;12.256;2022-08-03T03:48:00;7.70;;;7.10;;
5977;SDS011;3015;51.390;12.256;2022-08-03T03:50:27;8.70;;;7.90;;
5977;SDS011;3015;51.390;12.256;2022-08-03T03:52:56;8.40;;;7.67;;
5977;SDS011;3015;51.390;12.256;2022-08-03T03:55:22;8.17;;;7.57;;
5977;SDS011;3015;51.390;12.256;2022-08-03T03:57:47;8.77;;;8.07;;
5977;SDS011;3015;51.390;12.256;2022-08-03T04:00:13;8.17;;;7.47;;
5977;SDS011;3015;51.390;12.256;2022-08-03T04:02:40;9.30;;;8.60;;
5977;SDS011;3015;51.390;12.256;2022-08-03T04:05:06;8.93;;;8.33;;
5977;SDS011;3015;51.390;12.256;2022-08-03T04:10:40;8.97;;;8.20;;
5977;SDS011;3015;51.390;12.256;2022-08-03T04:13:23;8.77;;;7.97;;
5977;SDS011;3015;51.390;12.256;2022-08-03T04:15:55;9.63;;;8.80;;
5977;SDS011;3015;51.390;12.256;2022-08-03T04:18:22;9.20;;;8.50;;
5977;SDS011;3015;51.390;12.256;2022-08-03T04:20:50;8.00;;;7.50;;
5977;SDS011;3015;51.390;12.256;2022-08-03T04:23:17;8.10;;;7.60;;
5977;SDS011;3015;51.390;12.256;2022-08-03T04:25:46;8.70;;;8.00;;
5977;SDS011;3015;51.390;12.256;2022-08-03T04:28:15;8.33;;;7.63;;
5977;SDS011;3015;51.390;12.256;2022-08-03T04:30:41;8.10;;;7.50;;
5977;SDS011;3015;51.390;12.256;2022-08-03T04:33:12;8.60;;;7.90;;
5977;SDS011;3015;51.390;12.256;2022-08-03T04:35:40;8.47;;;7.87;;
5977;SDS011;3015;51.390;12.256;2022-08-03T04:38:10;8.80;;;8.10;;
5977;SDS011;3015;51.390;12.256;2022-08-03T04:40:40;8.07;;;7.47;;
5977;SDS011;3015;51.390;12.256;2022-08-03T04:43:07;9.13;;;8.40;;
5977;SDS011;3015;51.390;12.256;2022-08-03T04:45:35;9.70;;;8.83;;
5977;SDS011;3015;51.390;12.256;2022-08-03T04:48:02;10.07;;;9.27;;
5977;SDS011;3015;51.390;12.256;2022-08-03T04:50:28;8.33;;;7.80;;
5977;SDS011;3015;51.390;12.256;2022-08-03T04:52:54;7.97;;;7.43;;
5977;SDS011;3015;51.390;12.256;2022-08-03T04:55:26;7.87;;;7.27;;
5977;SDS011;3015;51.390;12.256;2022-08-03T04:57:56;8.10;;;7.60;;
5977;SDS011;3015;51.390;12.256;2022-08-03T05:00:23;10.27;;;8.87;;
5977;SDS011;3015;51.390;12.256;2022-08-03T05:02:49;8.13;;;7.53;;
5977;SDS011;3015;51.390;12.256;2022-08-03T05:05:15;8.83;;;8.13;;
5977;SDS011;3015;51.390;12.256;2022-08-03T05:07:41;8.57;;;6.70;;
5977;SDS011;3015;51.390;12.256;2022-08-03T05:10:08;9.57;;;8.47;;
5977;SDS011;3015;51.390;12.256;2022-08-03T05:12:35;7.97;;;7.43;;
5977;SDS011;3015;51.390;12.256;2022-08-03T05:15:00;8.33;;;7.70;;
5977;SDS011;3015;51.390;12.256;2022-08-03T05:17:27;7.30;;;6.70;;
5977;SDS011;3015;51.390;12.256;2022-08-03T05:19:53;8.03;;;7.30;;
5977;SDS011;3015;51.390;12.256;2022-08-03T05:22:19;7.60;;;6.60;;
5977;SDS011;3015;51.390;12.256;2022-08-03T05:24:46;6.20;;;5.73;;
5977;SDS011;3015;51.390;12.256;2022-08-03T05:27:11;7.13;;;6.53;;
5977;SDS011;3015;51.390;12.256;2022-08-03T05:29:43;6.67;;;6.13;;
5977;SDS011;3015;51.390;12.256;2022-08-03T05:32:09;6.60;;;6.20;;
5977;SDS011;3015;51.390;12.256;2022-08-03T05:34:35;7.10;;;6.17;;
5977;SDS011;3015;51.390;12.256;2022-08-03T05:37:00;7.20;;;6.70;;
5977;SDS011;3015;51.390;12.256;2022-08-03T05:39:26;8.73;;;6.30;;
5977;SDS011;3015;51.390;12.256;2022-08-03T05:41:52;9.23;;;6.60;;
5977;SDS011;3015;51.390;12.256;2022-08-03T05:44:17;7.27;;;6.67;;
5977;SDS011;3015;51.390;12.256;2022-08-03T05:46:43;6.90;;;6.30;;
5977;SDS011;3015;51.390;12.256;2022-08-03T05:49:08;6.50;;;6.00;;
5977;SDS011;3015;51.390;12.256;2022-08-03T05:51:34;6.93;;;6.33;;
5977;SDS011;3015;51.390;12.256;2022-08-03T05:54:01;7.20;;;6.50;;
5977;SDS011;3015;51.390;12.256;2022-08-03T05:56:26;5.70;;;5.30;;
5977;SDS011;3015;51.390;12.256;2022-08-03T05:58:52;6.47;;;5.97;;
5977;SDS011;3015;51.390;12.256;2022-08-03T06:01:19;6.57;;;5.97;;
5977;SDS011;3015;51.390;12.256;2022-08-03T06:03:48;6.73;;;6.13;;
5977;SDS011;3015;51.390;12.256;2022-08-03T06:06:14;5.97;;;5.47;;
5977;SDS011;3015;51.390;12.256;2022-08-03T06:08:41;8.80;;;6.17;;
5977;SDS011;3015;51.390;12.256;2022-08-03T06:11:07;6.03;;;5.43;;
5977;SDS011;3015;51.390;12.256;2022-08-03T06:13:33;7.70;;;5.97;;
5977;SDS011;3015;51.390;12.256;2022-08-03T06:15:59;5.40;;;4.90;;
5977;SDS011;3015;51.390;12.256;2022-08-03T06:18:25;6.03;;;5.60;;
5977;SDS011;3015;51.390;12.256;2022-08-03T06:20:51;5.27;;;4.97;;
5977;SDS011;3015;51.390;12.256;2022-08-03T06:23:17;5.00;;;4.63;;
5977;SDS011;3015;51.390;12.256;2022-08-03T06:25:43;5.90;;;5.40;;
5977;SDS011;3015;51.390;12.256;2022-08-03T06:28:08;5.70;;;5.20;;
5977;SDS011;3015;51.390;12.256;2022-08-03T06:30:34;5.37;;;4.90;;
5977;SDS011;3015;51.390;12.256;2022-08-03T06:33:00;6.10;;;5.60;;
5977;SDS011;3015;51.390;12.256;2022-08-03T06:35:25;10.00;;;5.70;;
5977;SDS011;3015;51.390;12.256;2022-08-03T06:37:52;6.70;;;6.20;;
5977;SDS011;3015;51.390;12.256;2022-08-03T06:40:19;5.37;;;4.90;;
5977;SDS011;3015;51.390;12.256;2022-08-03T06:42:54;5.40;;;5.03;;
5977;SDS011;3015;51.390;12.256;2022-08-03T06:45:21;5.27;;;4.87;;
5977;SDS011;3015;51.390;12.256;2022-08-03T06:47:46;4.93;;;4.53;;
5977;SDS011;3015;51.390;12.256;2022-08-03T06:50:12;5.27;;;4.87;;
5977;SDS011;3015;51.390;12.256;2022-08-03T06:52:38;8.80;;;4.90;;
5977;SDS011;3015;51.390;12.256;2022-08-03T06:55:03;4.83;;;4.40;;
5977;SDS011;3015;51.390;12.256;2022-08-03T06:57:30;5.10;;;4.60;;
5977;SDS011;3015;51.390;12.256;2022-08-03T06:59:55;6.10;;;4.67;;
5977;SDS011;3015;51.390;12.256;2022-08-03T07:02:25;4.13;;;3.83;;
5977;SDS011;3015;51.390;12.256;2022-08-03T07:04:52;4.00;;;3.63;;
5977;SDS011;3015;51.390;12.256;2022-08-03T07:07:17;4.90;;;4.40;;
5977;SDS011;3015;51.390;12.256;2022-08-03T07:09:44;4.07;;;3.80;;
5977;SDS011;3015;51.390;12.256;2022-08-03T07:12:10;6.90;;;3.50;;
5977;SDS011;3015;51.390;12.256;2022-08-03T07:14:35;3.70;;;3.40;;
5977;SDS011;3015;51.390;12.256;2022-08-03T07:17:01;4.50;;;4.10;;
5977;SDS011;3015;51.390;12.256;2022-08-03T07:19:27;4.10;;;3.77;;
5977;SDS011;3015;51.390;12.256;2022-08-03T07:21:52;4.50;;;4.23;;
5977;SDS011;3015;51.390;12.256;2022-08-03T07:24:18;3.87;;;3.67;;
5977;SDS011;3015;51.390;12.256;2022-08-03T07:26:44;3.93;;;3.73;;
5977;SDS011;3015;51.390;12.256;2022-08-03T07:29:09;4.00;;;3.70;;
5977;SDS011;3015;51.390;12.256;2022-08-03T07:31:35;3.40;;;3.20;;
5977;SDS011;3015;51.390;12.256;2022-08-03T07:34:00;3.77;;;3.50;;
5977;SDS011;3015;51.390;12.256;2022-08-03T07:36:26;8.83;;;3.60;;
5977;SDS011;3015;51.390;12.256;2022-08-03T07:38:52;3.63;;;3.33;;
5977;SDS011;3015;51.390;12.256;2022-08-03T07:41:17;3.43;;;3.20;;
5977;SDS011;3015;51.390;12.256;2022-08-03T07:43:43;4.03;;;3.73;;
5977;SDS011;3015;51.390;12.256;2022-08-03T07:46:09;3.67;;;3.33;;
5977;SDS011;3015;51.390;12.256;2022-08-03T07:48:35;3.80;;;3.20;;
5977;SDS011;3015;51.390;12.256;2022-08-03T07:51:00;4.60;;;3.77;;
5977;SDS011;3015;51.390;12.256;2022-08-03T07:53:27;3.43;;;3.23;;
5977;SDS011;3015;51.390;12.256;2022-08-03T07:55:52;3.27;;;3.17;;
5977;SDS011;3015;51.390;12.256;2022-08-03T07:58:18;4.73;;;3.90;;
5977;SDS011;3015;51.390;12.256;2022-08-03T08:00:44;4.80;;;3.70;;
5977;SDS011;3015;51.390;12.256;2022-08-03T08:03:09;5.93;;;3.37;;
5977;SDS011;3015;51.390;12.256;2022-08-03T08:05:36;4.43;;;3.30;;
5977;SDS011;3015;51.390;12.256;2022-08-03T08:08:02;3.90;;;3.60;;
5977;SDS011;3015;51.390;12.256;2022-08-03T08:10:28;3.63;;;3.33;;
5977;SDS011;3015;51.390;12.256;2022-08-03T08:12:54;6.03;;;3.90;;
5977;SDS011;3015;51.390;12.256;2022-08-03T08:15:20;3.60;;;3.50;;
5977;SDS011;3015;51.390;12.256;2022-08-03T08:17:50;4.07;;;3.80;;
5977;SDS011;3015;51.390;12.256;2022-08-03T08:20:19;3.73;;;3.40;;
5977;SDS011;3015;51.390;12.256;2022-08-03T08:22:46;3.60;;;3.47;;
5977;SDS011;3015;51.390;12.256;2022-08-03T08:25:12;3.80;;;3.60;;
5977;SDS011;3015;51.390;12.256;2022-08-03T08:27:45;4.13;;;3.83;;
5977;SDS011;3015;51.390;12.256;2022-08-03T08:30:13;6.33;;;4.27;;
5977;SDS011;3015;51.390;12.256;2022-08-03T08:32:40;3.90;;;3.60;;
5977;SDS011;3015;51.390;12.256;2022-08-03T08:35:06;4.53;;;4.13;;
5977;SDS011;3015;51.390;12.256;2022-08-03T08:37:33;6.60;;;4.13;;
5977;SDS011;3015;51.390;12.256;2022-08-03T08:39:58;4.87;;;4.47;;
5977;SDS011;3015;51.390;12.256;2022-08-03T08:42:24;4.67;;;4.37;;
5977;SDS011;3015;51.390;12.256;2022-08-03T08:44:50;5.03;;;4.63;;
5977;SDS011;3015;51.390;12.256;2022-08-03T08:47:20;3.97;;;3.77;;
5977;SDS011;3015;51.390;12.256;2022-08-03T08:49:51;4.57;;;4.27;;
5977;SDS011;3015;51.390;12.256;2022-08-03T08:52:18;4.70;;;4.30;;
5977;SDS011;3015;51.390;12.256;2022-08-03T08:54:48;4.60;;;4.40;;
5977;SDS011;3015;51.390;12.256;2022-08-03T08:57:14;4.53;;;4.33;;
5977;SDS011;3015;51.390;12.256;2022-08-03T08:59:41;4.63;;;4.23;;
5977;SDS011;3015;51.390;12.256;2022-08-03T09:02:08;5.57;;;5.27;;
5977;SDS011;3015;51.390;12.256;2022-08-03T09:04:34;4.87;;;4.50;;
5977;SDS011;3015;51.390;12.256;2022-08-03T09:07:03;4.80;;;4.50;;
5977;SDS011;3015;51.390;12.256;2022-08-03T09:09:29;4.90;;;4.60;;
5977;SDS011;3015;51.390;12.256;2022-08-03T09:11:55;4.97;;;4.67;;
5977;SDS011;3015;51.390;12.256;2022-08-03T09:14:21;4.10;;;3.70;;
5977;SDS011;3015;51.390;12.256;2022-08-03T09:16:57;5.33;;;4.93;;
5977;SDS011;3015;51.390;12.256;2022-08-03T09:19:25;5.10;;;4.60;;
5977;SDS011;3015;51.390;12.256;2022-08-03T09:25:01;5.30;;;5.00;;
5977;SDS011;3015;51.390;12.256;2022-08-03T09:27:51;6.43;;;4.00;;
5977;SDS011;3015;51.390;12.256;2022-08-03T09:30:16;4.87;;;4.57;;
5977;SDS011;3015;51.390;12.256;2022-08-03T09:32:43;4.60;;;4.30;;
5977;SDS011;3015;51.390;12.256;2022-08-03T09:35:10;4.93;;;4.60;;
5977;SDS011;3015;51.390;12.256;2022-08-03T09:37:39;5.13;;;4.70;;
5977;SDS011;3015;51.390;12.256;2022-08-03T09:40:05;4.63;;;4.23;;
5977;SDS011;3015;51.390;12.256;2022-08-03T09:42:31;4.90;;;4.40;;
5977;SDS011;3015;51.390;12.256;2022-08-03T09:45:02;5.43;;;5.13;;
5977;SDS011;3015;51.390;12.256;2022-08-03T09:47:30;5.40;;;4.90;;
5977;SDS011;3015;51.390;12.256;2022-08-03T09:50:03;5.50;;;4.43;;
5977;SDS011;3015;51.390;12.256;2022-08-03T09:52:38;4.63;;;4.43;;
5977;SDS011;3015;51.390;12.256;2022-08-03T09:55:08;5.30;;;4.90;;
5977;SDS011;3015;51.390;12.256;2022-08-03T09:57:35;5.53;;;4.87;;
5977;SDS011;3015;51.390;12.256;2022-08-03T10:00:11;4.73;;;4.50;;
5977;SDS011;3015;51.390;12.256;2022-08-03T10:02:38;4.80;;;4.50;;
5977;SDS011;3015;51.390;12.256;2022-08-03T10:05:06;5.47;;;5.17;;
5977;SDS011;3015;51.390;12.256;2022-08-03T10:07:43;5.40;;;5.03;;
5977;SDS011;3015;51.390;12.256;2022-08-03T10:10:10;5.23;;;5.03;;
5977;SDS011;3015;51.390;12.256;2022-08-03T10:12:37;6.17;;;5.33;;
5977;SDS011;3015;51.390;12.256;2022-08-03T10:15:04;11.20;;;6.13;;
5977;SDS011;3015;51.390;12.256;2022-08-03T10:17:31;4.80;;;4.50;;
5977;SDS011;3015;51.390;12.256;2022-08-03T10:19:56;5.17;;;4.87;;
5977;SDS011;3015;51.390;12.256;2022-08-03T10:22:26;4.77;;;4.57;;
5977;SDS011;3015;51.390;12.256;2022-08-03T10:25:07;5.03;;;4.73;;
5977;SDS011;3015;51.390;12.256;2022-08-03T10:27:41;4.77;;;4.57;;
5977;SDS011;3015;51.390;12.256;2022-08-03T10:30:10;4.57;;;4.30;;
5977;SDS011;3015;51.390;12.256;2022-08-03T10:32:40;5.27;;;4.83;;
5977;SDS011;3015;51.390;12.256;2022-08-03T10:35:07;5.20;;;4.70;;
5977;SDS011;3015;51.390;12.256;2022-08-03T10:37:42;5.20;;;4.90;;
5977;SDS011;3015;51.390;12.256;2022-08-03T10:40:13;5.10;;;4.80;;
5977;SDS011;3015;51.390;12.256;2022-08-03T10:42:43;5.20;;;4.80;;
5977;SDS011;3015;51.390;12.256;2022-08-03T10:45:19;4.63;;;4.43;;
5977;SDS011;3015;51.390;12.256;2022-08-03T10:47:48;4.63;;;4.43;;
5977;SDS011;3015;51.390;12.256;2022-08-03T10:50:15;5.00;;;4.60;;
5977;SDS011;3015;51.390;12.256;2022-08-03T10:52:58;4.50;;;4.30;;
5977;SDS011;3015;51.390;12.256;2022-08-03T10:55:40;4.50;;;4.13;;
5977;SDS011;3015;51.390;12.256;2022-08-03T11:01:19;4.70;;;4.40;;
5977;SDS011;3015;51.390;12.256;2022-08-03T11:04:17;5.40;;;4.90;;
5977;SDS011;3015;51.390;12.256;2022-08-03T11:06:44;7.20;;;4.90;;
5977;SDS011;3015;51.390;12.256;2022-08-03T11:11:40;4.30;;;4.10;;
5977;SDS011;3015;51.390;12.256;2022-08-03T11:14:25;6.80;;;4.30;;
5977;SDS011;3015;51.390;12.256;2022-08-03T11:17:24;4.80;;;4.40;;
5977;SDS011;3015;51.390;12.256;2022-08-03T11:19:44;4.77;;;4.53;;
5977;SDS011;3015;51.390;12.256;2022-08-03T11:22:14;5.00;;;4.70;;
5977;SDS011;3015;51.390;12.256;2022-08-03T11:27:21;4.67;;;4.47;;
5977;SDS011;3015;51.390;12.256;2022-08-03T11:30:01;4.83;;;4.57;;
5977;SDS011;3015;51.390;12.256;2022-08-03T11:35:12;4.80;;;4.27;;
5977;SDS011;3015;51.390;12.256;2022-08-03T11:42:56;4.90;;;4.67;;
5977;SDS011;3015;51.390;12.256;2022-08-03T11:45:22;4.70;;;4.30;;
5977;SDS011;3015;51.390;12.256;2022-08-03T11:47:47;4.40;;;4.20;;
5977;SDS011;3015;51.390;12.256;2022-08-03T11:50:17;6.60;;;4.80;;
5977;SDS011;3015;51.390;12.256;2022-08-03T11:52:43;4.87;;;4.40;;
5977;SDS011;3015;51.390;12.256;2022-08-03T11:55:10;4.73;;;4.43;;
5977;SDS011;3015;51.390;12.256;2022-08-03T11:57:36;5.30;;;4.97;;
5977;SDS011;3015;51.390;12.256;2022-08-03T12:00:03;4.83;;;4.47;;
5977;SDS011;3015;51.390;12.256;2022-08-03T12:03:00;4.70;;;4.37;;
5977;SDS011;3015;51.390;12.256;2022-08-03T12:05:38;4.50;;;4.30;;
5977;SDS011;3015;51.390;12.256;2022-08-03T12:08:05;4.10;;;3.90;;
5977;SDS011;3015;51.390;12.256;2022-08-03T12:10:32;5.27;;;4.77;;
5977;SDS011;3015;51.390;12.256;2022-08-03T12:12:58;4.90;;;4.40;;
5977;SDS011;3015;51.390;12.256;2022-08-03T12:15:29;4.70;;;4.43;;
5977;SDS011;3015;51.390;12.256;2022-08-03T12:17:57;4.57;;;4.37;;
5977;SDS011;3015;51.390;12.256;2022-08-03T12:20:24;4.90;;;4.53;;
5977;SDS011;3015;51.390;12.256;2022-08-03T12:22:52;4.10;;;3.90;;
5977;SDS011;3015;51.390;12.256;2022-08-03T12:25:24;5.03;;;4.73;;
5977;SDS011;3015;51.390;12.256;2022-08-03T12:27:51;4.53;;;4.13;;
5977;SDS011;3015;51.390;12.256;2022-08-03T12:30:18;4.90;;;4.60;;
5977;SDS011;3015;51.390;12.256;2022-08-03T12:32:44;4.70;;;4.50;;
5977;SDS011;3015;51.390;12.256;2022-08-03T12:35:10;4.73;;;4.37;;
5977;SDS011;3015;51.390;12.256;2022-08-03T12:37:47;4.67;;;4.40;;
5977;SDS011;3015;51.390;12.256;2022-08-03T12:40:13;4.37;;;4.17;;
5977;SDS011;3015;51.390;12.256;2022-08-03T12:42:40;5.20;;;4.90;;
5977;SDS011;3015;51.390;12.256;2022-08-03T12:50:30;4.57;;;4.37;;
5977;SDS011;3015;51.390;12.256;2022-08-03T12:52:58;4.20;;;3.97;;
5977;SDS011;3015;51.390;12.256;2022-08-03T12:55:26;3.93;;;3.63;;
5977;SDS011;3015;51.390;12.256;2022-08-03T12:57:58;4.60;;;4.30;;
5977;SDS011;3015;51.390;12.256;2022-08-03T13:00:24;4.93;;;4.63;;
5977;SDS011;3015;51.390;12.256;2022-08-03T13:03:01;4.27;;;4.07;;
5977;SDS011;3015;51.390;12.256;2022-08-03T13:05:28;4.53;;;4.23;;
5977;SDS011;3015;51.390;12.256;2022-08-03T13:07:55;4.50;;;4.20;;
5977;SDS011;3015;51.390;12.256;2022-08-03T13:10:30;4.87;;;4.60;;
5977;SDS011;3015;51.390;12.256;2022-08-03T13:12:57;4.30;;;4.00;;
5977;SDS011;3015;51.390;12.256;2022-08-03T13:15:27;5.20;;;4.70;;
5977;SDS011;3015;51.390;12.256;2022-08-03T13:17:54;4.70;;;4.40;;
5977;SDS011;3015;51.390;12.256;2022-08-03T13:20:21;5.63;;;4.33;;
5977;SDS011;3015;51.390;12.256;2022-08-03T13:22:47;8.30;;;4.53;;
5977;SDS011;3015;51.390;12.256;2022-08-03T13:25:13;4.37;;;4.17;;
5977;SDS011;3015;51.390;12.256;2022-08-03T13:27:39;4.07;;;3.90;;
5977;SDS011;3015;51.390;12.256;2022-08-03T13:30:05;4.40;;;4.10;;
5977;SDS011;3015;51.390;12.256;2022-08-03T13:32:32;11.80;;;4.30;;
5977;SDS011;3015;51.390;12.256;2022-08-03T13:34:58;4.37;;;3.97;;
5977;SDS011;3015;51.390;12.256;2022-08-03T13:37:24;4.90;;;4.50;;
5977;SDS011;3015;51.390;12.256;2022-08-03T13:39:50;4.10;;;3.70;;
5977;SDS011;3015;51.390;12.256;2022-08-03T13:42:16;5.07;;;4.77;;
5977;SDS011;3015;51.390;12.256;2022-08-03T13:44:41;4.47;;;4.07;;
5977;SDS011;3015;51.390;12.256;2022-08-03T13:47:07;4.60;;;4.40;;
5977;SDS011;3015;51.390;12.256;2022-08-03T13:49:33;4.30;;;4.10;;
5977;SDS011;3015;51.390;12.256;2022-08-03T13:51:58;4.67;;;4.37;;
5977;SDS011;3015;51.390;12.256;2022-08-03T13:54:24;3.93;;;3.73;;
5977;SDS011;3015;51.390;12.256;2022-08-03T13:56:50;4.70;;;4.30;;
5977;SDS011;3015;51.390;12.256;2022-08-03T13:59:19;4.43;;;4.07;;
5977;SDS011;3015;51.390;12.256;2022-08-03T14:01:46;4.40;;;4.20;;
5977;SDS011;3015;51.390;12.256;2022-08-03T14:04:12;4.63;;;4.23;;
5977;SDS011;3015;51.390;12.256;2022-08-03T14:06:38;4.17;;;3.87;;
5977;SDS011;3015;51.390;12.256;2022-08-03T14:09:04;4.77;;;4.47;;
5977;SDS011;3015;51.390;12.256;2022-08-03T14:11:29;4.40;;;4.10;;
5977;SDS011;3015;51.390;12.256;2022-08-03T14:13:55;3.90;;;3.70;;
5977;SDS011;3015;51.390;12.256;2022-08-03T14:16:21;4.50;;;4.20;;
5977;SDS011;3015;51.390;12.256;2022-08-03T14:18:46;3.90;;;3.70;;
5977;SDS011;3015;51.390;12.256;2022-08-03T14:21:12;4.50;;;4.30;;
5977;SDS011;3015;51.390;12.256;2022-08-03T14:23:38;4.43;;;4.23;;
5977;SDS011;3015;51.390;12.256;2022-08-03T14:26:04;4.37;;;4.20;;
5977;SDS011;3015;51.390;12.256;2022-08-03T14:28:31;4.40;;;4.20;;
5977;SDS011;3015;51.390;12.256;2022-08-03T14:30:57;4.07;;;3.97;;
5977;SDS011;3015;51.390;12.256;2022-08-03T14:33:23;4.80;;;4.50;;
5977;SDS011;3015;51.390;12.256;2022-08-03T14:35:49;4.40;;;4.10;;
5977;SDS011;3015;51.390;12.256;2022-08-03T14:38:16;3.70;;;3.50;;
5977;SDS011;3015;51.390;12.256;2022-08-03T14:40:42;3.77;;;3.60;;
5977;SDS011;3015;51.390;12.256;2022-08-03T14:43:08;4.20;;;4.03;;
5977;SDS011;3015;51.390;12.256;2022-08-03T14:45:34;4.40;;;4.20;;
5977;SDS011;3015;51.390;12.256;2022-08-03T14:47:59;5.63;;;3.90;;
5977;SDS011;3015;51.390;12.256;2022-08-03T14:50:25;4.40;;;4.20;;
5977;SDS011;3015;51.390;12.256;2022-08-03T14:52:55;4.70;;;4.50;;
5977;SDS011;3015;51.390;12.256;2022-08-03T14:55:21;4.10;;;3.90;;
5977;SDS011;3015;51.390;12.256;2022-08-03T14:57:46;4.23;;;3.63;;
5977;SDS011;3015;51.390;12.256;2022-08-03T15:00:12;4.27;;;4.07;;
5977;SDS011;3015;51.390;12.256;2022-08-03T15:02:38;4.17;;;3.90;;
5977;SDS011;3015;51.390;12.256;2022-08-03T15:05:04;4.67;;;4.20;;
5977;SDS011;3015;51.390;12.256;2022-08-03T15:07:30;4.40;;;4.20;;
5977;SDS011;3015;51.390;12.256;2022-08-03T15:09:55;5.57;;;4.70;;
5977;SDS011;3015;51.390;12.256;2022-08-03T15:12:21;5.33;;;4.30;;
5977;SDS011;3015;51.390;12.256;2022-08-03T15:14:46;4.57;;;4.27;;
5977;SDS011;3015;51.390;12.256;2022-08-03T15:17:12;4.67;;;4.47;;
5977;SDS011;3015;51.390;12.256;2022-08-03T15:19:38;3.70;;;3.50;;
5977;SDS011;3015;51.390;12.256;2022-08-03T15:22:04;4.87;;;4.57;;
5977;SDS011;3015;51.390;12.256;2022-08-03T15:24:30;4.80;;;4.50;;
5977;SDS011;3015;51.390;12.256;2022-08-03T15:26:56;4.30;;;4.00;;
5977;SDS011;3015;51.390;12.256;2022-08-03T15:29:21;5.03;;;3.97;;
5977;SDS011;3015;51.390;12.256;2022-08-03T15:31:47;4.00;;;3.73;;
5977;SDS011;3015;51.390;12.256;2022-08-03T15:34:12;4.17;;;3.83;;
5977;SDS011;3015;51.390;12.256;2022-08-03T15:36:38;4.93;;;4.60;;
5977;SDS011;3015;51.390;12.256;2022-08-03T15:39:04;4.43;;;4.07;;
5977;SDS011;3015;51.390;12.256;2022-08-03T15:41:30;4.57;;;4.27;;
5977;SDS011;3015;51.390;12.256;2022-08-03T15:43:55;3.90;;;3.80;;
5977;SDS011;3015;51.390;12.256;2022-08-03T15:46:21;4.27;;;4.03;;
5977;SDS011;3015;51.390;12.256;2022-08-03T15:48:47;5.57;;;5.30;;